createdAt,value
2023-07-09T00:00:20.450Z,21.66
2023-07-09T00:03:12.139Z,21.67
2023-07-09T00:05:40.731Z,21.64
2023-07-09T00:08:27.802Z,21.59
2023-07-09T00:10:57.363Z,21.60
2023-07-09T00:13:27.577Z,21.64
2023-07-09T00:16:02.765Z,21.56
2023-07-09T00:18:31.126Z,21.51
2023-07-09T00:21:00.405Z,21.56
2023-07-09T00:23:29.034Z,21.53
2023-07-09T00:25:59.755Z,21.54
2023-07-09T00:28:28.117Z,21.54
2023-07-09T00:30:56.565Z,21.56
2023-07-09T00:33:29.349Z,21.52
2023-07-09T00:35:57.883Z,21.55
2023-07-09T00:38:26.012Z,21.55
2023-07-09T00:41:07.143Z,21.61
2023-07-09T00:43:37.550Z,21.58
2023-07-09T00:46:37.753Z,21.60
2023-07-09T00:49:10.336Z,21.62
2023-07-09T00:51:43.381Z,21.68
2023-07-09T00:54:38.169Z,21.68
2023-07-09T00:57:19.695Z,21.73
2023-07-09T00:59:52.980Z,21.65
2023-07-09T01:02:25.585Z,21.69
2023-07-09T01:05:02.093Z,21.73
2023-07-09T01:07:35.898Z,21.73
2023-07-09T01:10:04.548Z,21.80
2023-07-09T01:12:36.359Z,21.80
2023-07-09T01:15:06.271Z,21.84
2023-07-09T01:17:35.558Z,21.83
2023-07-09T01:20:04.899Z,21.87
2023-07-09T01:22:33.921Z,21.82
2023-07-09T01:25:08.351Z,21.87
2023-07-09T01:27:44.118Z,21.88
2023-07-09T01:30:24.560Z,21.89
2023-07-09T01:32:58.774Z,21.94
2023-07-09T01:35:28.044Z,21.93
2023-07-09T01:37:57.382Z,21.92
2023-07-09T01:40:31.937Z,21.93
2023-07-09T01:43:07.606Z,21.91
2023-07-09T01:45:38.266Z,21.94
2023-07-09T01:48:09.417Z,21.94
2023-07-09T01:50:40.373Z,22.00
2023-07-09T01:53:10.046Z,22.03
2023-07-09T01:55:40.988Z,22.18
2023-07-09T01:58:12.500Z,22.40
2023-07-09T02:00:42.815Z,22.63
2023-07-09T02:03:12.928Z,22.90
2023-07-09T02:05:42.192Z,23.24
2023-07-09T02:08:10.509Z,23.51
2023-07-09T02:10:38.569Z,23.72
2023-07-09T02:13:07.021Z,23.96
2023-07-09T02:15:35.838Z,24.16
2023-07-09T02:18:04.655Z,24.42
2023-07-09T02:20:52.674Z,24.92
2023-07-09T02:23:21.895Z,25.26
2023-07-09T02:25:49.834Z,25.62
2023-07-09T02:28:18.139Z,25.84
2023-07-09T02:30:46.647Z,26.04
2023-07-09T02:33:15.088Z,26.29
2023-07-09T02:35:43.961Z,26.60
2023-07-09T02:38:12.324Z,26.79
2023-07-09T02:40:40.578Z,26.71
2023-07-09T02:43:08.931Z,27.18
2023-07-09T02:45:37.181Z,27.39
2023-07-09T02:48:05.910Z,27.36
2023-07-09T02:50:39.805Z,27.17
2023-07-09T02:53:08.312Z,26.85
2023-07-09T02:55:36.604Z,27.09
2023-07-09T02:58:05.071Z,27.13
2023-07-09T03:00:34.922Z,27.37
2023-07-09T03:03:04.038Z,27.10
2023-07-09T03:05:32.823Z,26.86
2023-07-09T03:08:01.177Z,26.78
2023-07-09T03:10:30.395Z,26.98
2023-07-09T03:12:58.967Z,27.02
2023-07-09T03:15:26.930Z,26.81
2023-07-09T03:17:55.230Z,26.60
2023-07-09T03:20:23.350Z,26.89
2023-07-09T03:22:51.713Z,27.17
2023-07-09T03:25:20.137Z,27.44
2023-07-09T03:27:50.032Z,27.59
2023-07-09T03:30:18.131Z,27.54
2023-07-09T03:32:47.148Z,27.47
2023-07-09T03:35:16.958Z,27.58
2023-07-09T03:37:45.303Z,27.57
2023-07-09T03:40:25.163Z,27.34
2023-07-09T03:42:53.926Z,27.27
2023-07-09T03:45:21.920Z,27.19
2023-07-09T03:47:50.312Z,26.93
2023-07-09T03:50:18.862Z,26.71
2023-07-09T03:52:47.126Z,26.65
2023-07-09T03:55:15.636Z,26.78
2023-07-09T03:57:44.167Z,26.76
2023-07-09T04:00:12.928Z,26.81
2023-07-09T04:02:47.195Z,26.68
2023-07-09T04:05:15.987Z,26.73
2023-07-09T04:07:44.280Z,26.78
2023-07-09T04:10:12.924Z,26.79
2023-07-09T04:12:41.869Z,26.64
2023-07-09T04:15:14.250Z,26.63
2023-07-09T04:17:44.878Z,26.59
2023-07-09T04:20:14.117Z,26.66
2023-07-09T04:22:42.533Z,26.62
2023-07-09T04:25:11.913Z,26.61
2023-07-09T04:27:40.822Z,26.63
2023-07-09T04:30:16.384Z,26.87
2023-07-09T04:32:45.827Z,26.90
2023-07-09T04:35:15.866Z,26.83
2023-07-09T04:37:44.512Z,26.67
2023-07-09T04:40:14.340Z,26.75
2023-07-09T04:42:42.976Z,27.09
2023-07-09T04:45:12.933Z,27.11
2023-07-09T04:47:41.940Z,26.81
2023-07-09T04:50:10.761Z,26.85
2023-07-09T04:52:39.032Z,26.97
2023-07-09T04:55:09.110Z,27.08
2023-07-09T04:57:40.922Z,27.04
2023-07-09T05:00:11.861Z,27.35
2023-07-09T05:02:40.586Z,27.43
2023-07-09T05:05:09.074Z,27.37
2023-07-09T05:07:37.883Z,27.50
2023-07-09T05:10:08.094Z,27.30
2023-07-09T05:12:36.319Z,27.33
2023-07-09T05:15:04.646Z,27.42
2023-07-09T05:17:33.751Z,27.23
2023-07-09T05:20:01.641Z,27.54
2023-07-09T05:22:30.325Z,27.61
2023-07-09T05:24:58.132Z,27.56
2023-07-09T05:27:26.362Z,27.66
2023-07-09T05:29:57.436Z,27.77
2023-07-09T05:32:25.959Z,27.87
2023-07-09T05:34:53.931Z,27.65
2023-07-09T05:37:22.184Z,27.43
2023-07-09T05:39:50.302Z,27.29
2023-07-09T05:42:18.746Z,27.45
2023-07-09T05:44:47.434Z,27.60
2023-07-09T05:47:15.967Z,27.65
2023-07-09T05:49:44.058Z,27.58
2023-07-09T05:52:12.469Z,27.66
2023-07-09T05:54:40.339Z,27.57
2023-07-09T05:57:10.059Z,27.48
2023-07-09T05:59:38.121Z,27.54
2023-07-09T06:02:12.177Z,27.46
2023-07-09T06:04:40.736Z,27.38
2023-07-09T06:07:11.210Z,27.45
2023-07-09T06:09:39.265Z,27.44
2023-07-09T06:12:08.440Z,27.46
2023-07-09T06:14:37.193Z,27.49
2023-07-09T06:17:05.835Z,27.46
2023-07-09T06:19:33.980Z,27.33
2023-07-09T06:22:02.415Z,27.35
2023-07-09T06:24:30.421Z,27.40
2023-07-09T06:26:58.842Z,27.47
2023-07-09T06:29:27.803Z,27.41
2023-07-09T06:31:56.125Z,27.47
2023-07-09T06:34:24.581Z,27.51
2023-07-09T06:36:53.357Z,27.63
2023-07-09T06:39:21.182Z,27.55
2023-07-09T06:41:50.035Z,27.65
2023-07-09T06:44:38.108Z,27.70
2023-07-09T06:47:06.764Z,27.65
2023-07-09T06:49:34.818Z,27.58
2023-07-09T06:52:03.922Z,27.51
2023-07-09T06:54:34.585Z,27.64
2023-07-09T06:57:02.925Z,27.69
2023-07-09T06:59:31.232Z,27.72
2023-07-09T07:02:00.520Z,27.75
2023-07-09T07:04:29.011Z,27.72
2023-07-09T07:06:58.211Z,27.86
2023-07-09T07:09:26.203Z,27.81
2023-07-09T07:11:54.413Z,27.85
2023-07-09T07:14:22.404Z,27.85
2023-07-09T07:16:51.568Z,27.90
2023-07-09T07:19:19.485Z,27.88
2023-07-09T07:21:47.928Z,27.91
2023-07-09T07:24:15.948Z,28.02
2023-07-09T07:26:44.190Z,28.10
2023-07-09T07:29:13.568Z,28.14
2023-07-09T07:31:41.883Z,28.20
2023-07-09T07:34:09.853Z,28.32
2023-07-09T07:36:42.262Z,28.35
2023-07-09T07:39:11.451Z,28.37
2023-07-09T07:41:39.724Z,28.40
2023-07-09T07:44:07.705Z,28.46
2023-07-09T07:46:37.986Z,28.50
2023-07-09T07:49:06.136Z,28.56
2023-07-09T07:51:35.339Z,28.67
2023-07-09T07:54:03.758Z,28.65
2023-07-09T07:56:32.221Z,28.68
2023-07-09T07:59:02.702Z,28.79
2023-07-09T08:01:40.293Z,28.80
2023-07-09T08:04:16.051Z,28.91
2023-07-09T08:06:44.617Z,28.97
2023-07-09T08:09:12.781Z,29.02
2023-07-09T08:11:41.091Z,29.05
2023-07-09T08:14:09.166Z,29.09
2023-07-09T08:16:37.636Z,29.11
2023-07-09T08:19:05.814Z,29.17
2023-07-09T08:21:34.396Z,29.25
2023-07-09T08:24:04.702Z,29.29
2023-07-09T08:26:34.097Z,29.25
2023-07-09T08:29:02.504Z,29.35
2023-07-09T08:31:30.830Z,29.40
2023-07-09T08:33:58.881Z,29.50
2023-07-09T08:36:29.655Z,29.50
2023-07-09T08:38:58.790Z,29.57
2023-07-09T08:41:46.416Z,29.59
2023-07-09T08:44:24.490Z,29.63
2023-07-09T08:47:01.670Z,29.69
2023-07-09T08:49:56.429Z,29.71
2023-07-09T08:52:36.945Z,29.71
2023-07-09T08:55:13.322Z,29.78
2023-07-09T08:57:49.921Z,29.81
2023-07-09T09:00:57.826Z,29.81
2023-07-09T09:04:14.086Z,29.72
2023-07-09T09:06:49.203Z,29.71
2023-07-09T09:09:33.980Z,29.58
2023-07-09T09:12:14.316Z,29.63
2023-07-09T09:14:53.915Z,29.69
2023-07-09T09:17:22.495Z,29.74
2023-07-09T09:20:00.877Z,29.80
2023-07-09T09:22:38.024Z,29.84
2023-07-09T09:25:28.656Z,29.85
2023-07-09T09:27:56.978Z,29.82
2023-07-09T09:30:27.157Z,29.84
2023-07-09T09:33:04.433Z,29.74
2023-07-09T09:35:38.944Z,29.85
2023-07-09T09:38:21.242Z,29.93
2023-07-09T09:40:50.334Z,29.97
2023-07-09T09:43:22.502Z,30.04
2023-07-09T09:45:51.613Z,30.01
2023-07-09T09:48:38.845Z,29.95
2023-07-09T09:51:07.826Z,29.97
2023-07-09T09:53:41.392Z,30.06
2023-07-09T09:56:19.630Z,30.06
2023-07-09T09:58:55.021Z,30.04
2023-07-09T10:01:32.394Z,30.13
2023-07-09T10:04:02.456Z,30.15
2023-07-09T10:06:34.027Z,30.10
2023-07-09T10:09:17.378Z,30.02
2023-07-09T10:11:50.335Z,30.00
2023-07-09T10:14:29.948Z,30.00
2023-07-09T10:17:25.585Z,30.04
2023-07-09T10:20:15.038Z,30.08
2023-07-09T10:26:17.100Z,30.14
2023-07-09T10:29:00.852Z,30.20
2023-07-09T10:31:47.592Z,30.28
2023-07-09T10:35:02.604Z,30.33
2023-07-09T10:37:55.811Z,30.36
2023-07-09T10:40:34.959Z,30.48
2023-07-09T10:43:06.504Z,30.40
2023-07-09T10:45:42.420Z,30.35
2023-07-09T10:48:13.855Z,30.37
2023-07-09T10:50:45.748Z,30.33
2023-07-09T10:53:39.066Z,30.30
2023-07-09T10:56:10.819Z,30.31
2023-07-09T10:58:50.679Z,30.40
2023-07-09T11:01:27.226Z,30.57
2023-07-09T11:04:01.979Z,30.53
2023-07-09T11:06:39.808Z,30.63
2023-07-09T11:09:19.236Z,30.69
2023-07-09T11:11:52.475Z,30.72
2023-07-09T11:14:42.261Z,30.74
2023-07-09T11:17:19.139Z,30.82
2023-07-09T11:19:50.079Z,30.83
2023-07-09T11:22:24.014Z,30.80
2023-07-09T11:25:10.995Z,30.78
2023-07-09T11:27:52.760Z,30.75
2023-07-09T11:30:27.739Z,30.78
2023-07-09T11:33:10.341Z,30.72
2023-07-09T11:35:52.846Z,30.58
2023-07-09T11:38:25.139Z,30.46
2023-07-09T11:40:55.768Z,30.27
2023-07-09T11:43:47.771Z,30.47
2023-07-09T11:46:25.740Z,30.49
2023-07-09T11:48:59.435Z,30.41
2023-07-09T11:51:46.863Z,30.44
2023-07-09T11:54:20.312Z,30.29
2023-07-09T11:56:59.294Z,30.16
2023-07-09T11:59:28.464Z,30.12
2023-07-09T12:02:22.555Z,30.08
2023-07-09T12:04:52.501Z,29.97
2023-07-09T12:07:24.627Z,29.87
2023-07-09T12:09:52.988Z,29.79
2023-07-09T12:12:29.987Z,29.65
2023-07-09T12:14:58.339Z,29.58
2023-07-09T12:17:31.835Z,29.59
2023-07-09T12:20:05.620Z,29.52
2023-07-09T12:22:34.228Z,29.29
2023-07-09T12:25:02.830Z,29.30
2023-07-09T12:27:38.890Z,29.28
2023-07-09T12:30:14.638Z,29.09
2023-07-09T12:32:47.798Z,29.06
2023-07-09T12:35:17.891Z,29.16
2023-07-09T12:37:48.313Z,29.18
2023-07-09T12:40:22.285Z,29.32
2023-07-09T12:42:50.994Z,29.32
2023-07-09T12:45:21.788Z,29.22
2023-07-09T12:47:50.977Z,29.02
2023-07-09T12:50:34.128Z,29.02
2023-07-09T12:53:16.679Z,29.09
2023-07-09T12:55:47.834Z,28.89
2023-07-09T12:58:22.388Z,28.94
2023-07-09T13:00:53.149Z,28.96
2023-07-09T13:03:28.457Z,28.69
2023-07-09T13:06:05.437Z,28.68
2023-07-09T13:08:44.336Z,28.52
2023-07-09T13:11:22.526Z,28.44
2023-07-09T13:14:04.455Z,28.58
2023-07-09T13:16:39.773Z,28.57
2023-07-09T13:19:07.799Z,28.52
2023-07-09T13:21:38.919Z,28.58
2023-07-09T13:24:29.292Z,28.65
2023-07-09T13:27:00.810Z,28.59
2023-07-09T13:29:29.391Z,28.58
2023-07-09T13:31:58.701Z,28.58
2023-07-09T13:34:29.234Z,28.54
2023-07-09T13:37:00.155Z,28.52
2023-07-09T13:39:29.237Z,28.58
2023-07-09T13:41:58.044Z,28.51
2023-07-09T13:44:29.316Z,28.53
2023-07-09T13:46:57.730Z,28.58
2023-07-09T13:49:28.786Z,28.54
2023-07-09T13:52:00.781Z,28.40
2023-07-09T13:54:41.733Z,28.33
2023-07-09T13:57:15.569Z,28.38
2023-07-09T13:59:46.848Z,28.24
2023-07-09T14:02:21.160Z,28.23
2023-07-09T14:04:49.553Z,28.23
2023-07-09T14:07:46.153Z,28.33
2023-07-09T14:10:19.436Z,28.33
2023-07-09T14:12:48.794Z,28.30
2023-07-09T14:15:22.091Z,28.23
2023-07-09T14:17:50.327Z,28.20
2023-07-09T14:20:19.382Z,28.17
2023-07-09T14:22:49.180Z,28.14
2023-07-09T14:25:22.367Z,28.13
2023-07-09T14:27:55.231Z,27.99
2023-07-09T14:30:28.365Z,28.05
2023-07-09T14:32:59.322Z,28.06
2023-07-09T14:35:28.201Z,27.96
2023-07-09T14:37:56.818Z,27.78
2023-07-09T14:40:51.237Z,27.78
2023-07-09T14:43:19.737Z,27.76
2023-07-09T14:45:51.062Z,27.61
2023-07-09T14:48:22.469Z,27.52
2023-07-09T14:50:52.453Z,27.41
2023-07-09T14:53:28.811Z,27.12
2023-07-09T14:55:58.596Z,27.18
2023-07-09T14:58:27.902Z,27.20
2023-07-09T15:00:56.315Z,27.16
2023-07-09T15:03:27.320Z,27.13
2023-07-09T15:05:55.918Z,27.01
2023-07-09T15:08:26.888Z,27.01
2023-07-09T15:10:56.986Z,27.01
2023-07-09T15:13:35.962Z,27.02
2023-07-09T15:16:06.064Z,27.08
2023-07-09T15:18:38.060Z,27.03
2023-07-09T15:21:07.025Z,27.06
2023-07-09T15:23:41.087Z,27.05
2023-07-09T15:26:15.836Z,27.03
2023-07-09T15:28:44.697Z,27.03
2023-07-09T15:31:13.486Z,27.08
2023-07-09T15:33:41.631Z,27.04
2023-07-09T15:36:13.374Z,27.06
2023-07-09T15:38:43.368Z,27.07
2023-07-09T15:41:16.219Z,27.11
2023-07-09T15:43:45.596Z,27.10
2023-07-09T15:46:22.744Z,27.06
2023-07-09T15:48:53.416Z,27.06
2023-07-09T15:51:23.041Z,27.03
2023-07-09T15:53:51.341Z,26.98
2023-07-09T15:56:31.222Z,26.90
2023-07-09T15:59:01.195Z,26.84
2023-07-09T16:01:29.882Z,26.79
2023-07-09T16:04:04.058Z,26.79
2023-07-09T16:06:36.660Z,26.78
2023-07-09T16:09:07.128Z,26.72
2023-07-09T16:11:38.121Z,26.69
2023-07-09T16:14:18.233Z,26.47
2023-07-09T16:16:52.255Z,26.62
2023-07-09T16:19:22.931Z,26.61
2023-07-09T16:22:12.322Z,26.59
2023-07-09T16:24:40.424Z,26.58
2023-07-09T16:27:15.524Z,26.53
2023-07-09T16:29:43.688Z,26.50
2023-07-09T16:32:12.182Z,26.51
2023-07-09T16:34:42.543Z,26.45
2023-07-09T16:37:21.589Z,26.41
2023-07-09T16:39:49.988Z,26.38
2023-07-09T16:42:18.343Z,26.39
2023-07-09T16:45:11.720Z,26.39
2023-07-09T16:51:53.620Z,26.20
2023-07-09T16:54:22.033Z,26.11
2023-07-09T16:56:54.689Z,26.08
2023-07-09T16:59:23.823Z,26.03
2023-07-09T17:01:52.363Z,25.84
2023-07-09T17:04:28.487Z,25.91
2023-07-09T17:06:57.583Z,25.77
2023-07-09T17:09:25.725Z,25.77
2023-07-09T17:11:59.159Z,25.73
2023-07-09T17:14:27.503Z,25.68
2023-07-09T17:16:56.461Z,25.69
2023-07-09T17:19:24.982Z,25.72
2023-07-09T17:21:56.042Z,25.73
2023-07-09T17:24:26.638Z,25.71
2023-07-09T17:26:59.210Z,25.66
2023-07-09T17:29:27.277Z,25.62
2023-07-09T17:31:55.706Z,25.50
2023-07-09T17:34:24.113Z,25.32
2023-07-09T17:36:55.205Z,25.17
2023-07-09T17:39:25.373Z,25.08
2023-07-09T17:41:54.024Z,24.84
2023-07-09T17:44:24.795Z,24.81
2023-07-09T17:46:55.338Z,24.64
2023-07-09T17:49:29.360Z,24.58
2023-07-09T17:51:59.558Z,24.46
2023-07-09T17:54:30.082Z,24.45
2023-07-09T17:56:58.769Z,24.38
2023-07-09T17:59:32.163Z,24.36
2023-07-09T18:02:15.035Z,24.42
2023-07-09T18:04:43.450Z,24.41
2023-07-09T18:07:29.557Z,24.37
2023-07-09T18:09:59.106Z,24.29
2023-07-09T18:12:29.513Z,24.16
2023-07-09T18:14:59.245Z,23.98
2023-07-09T18:17:36.474Z,23.86
2023-07-09T18:20:14.919Z,23.82
2023-07-09T18:22:43.287Z,23.67
2023-07-09T18:25:12.247Z,23.80
2023-07-09T18:27:44.749Z,23.86
2023-07-09T18:30:22.994Z,23.60
2023-07-09T18:32:56.317Z,23.40
2023-07-09T18:35:27.637Z,23.35
2023-07-09T18:38:02.263Z,23.43
2023-07-09T18:40:34.137Z,23.58
2023-07-09T18:43:03.707Z,23.63
2023-07-09T18:45:31.637Z,23.72
2023-07-09T18:48:00.522Z,23.82
2023-07-09T18:50:31.083Z,23.86
2023-07-09T18:53:00.823Z,23.89
2023-07-09T18:55:30.645Z,23.90
2023-07-09T18:58:14.673Z,23.94
2023-07-09T19:00:42.827Z,24.01
2023-07-09T19:03:19.557Z,24.02
2023-07-09T19:05:48.380Z,24.05
2023-07-09T19:08:28.292Z,24.08
2023-07-09T19:10:57.226Z,24.12
2023-07-09T19:13:29.359Z,24.09
2023-07-09T19:16:00.204Z,24.08
2023-07-09T19:18:34.722Z,23.99
2023-07-09T19:21:04.522Z,24.01
2023-07-09T19:23:33.873Z,24.00
2023-07-09T19:26:02.438Z,23.94
2023-07-09T19:28:31.131Z,23.80
2023-07-09T19:30:59.432Z,23.77
2023-07-09T19:33:37.111Z,23.60
2023-07-09T19:36:23.301Z,23.60
2023-07-09T19:38:53.612Z,23.60
2023-07-09T19:41:23.536Z,23.65
2023-07-09T19:43:52.255Z,23.58
2023-07-09T19:46:29.934Z,23.54
2023-07-09T19:48:58.433Z,23.50
2023-07-09T19:51:26.416Z,23.53
2023-07-09T19:53:55.006Z,23.49
2023-07-09T19:56:22.856Z,23.41
2023-07-09T19:58:53.088Z,23.50
2023-07-09T20:01:22.056Z,23.41
2023-07-09T20:03:50.450Z,23.31
2023-07-09T20:06:18.511Z,23.31
2023-07-09T20:08:47.365Z,23.34
2023-07-09T20:11:15.315Z,23.31
2023-07-09T20:13:44.269Z,23.33
2023-07-09T20:16:30.321Z,23.35
2023-07-09T20:19:00.190Z,23.41
2023-07-09T20:21:28.827Z,23.38
2023-07-09T20:23:57.602Z,23.41
2023-07-09T20:26:25.777Z,23.39
2023-07-09T20:28:54.171Z,23.42
2023-07-09T20:31:25.761Z,23.36
2023-07-09T20:34:11.808Z,23.34
2023-07-09T20:36:40.171Z,23.37
2023-07-09T20:39:20.750Z,23.40
2023-07-09T20:41:52.477Z,23.41
2023-07-09T20:44:24.438Z,23.38
2023-07-09T20:46:53.093Z,23.32
2023-07-09T20:49:28.683Z,23.35
2023-07-09T20:51:57.011Z,23.33
2023-07-09T20:54:25.475Z,23.32
2023-07-09T20:56:57.849Z,23.24
2023-07-09T20:59:28.761Z,23.17
2023-07-09T21:01:56.911Z,23.19
2023-07-09T21:04:25.580Z,23.17
2023-07-09T21:06:54.302Z,23.18
2023-07-09T21:09:31.656Z,23.18
2023-07-09T21:11:59.968Z,23.24
2023-07-09T21:14:28.641Z,23.22
2023-07-09T21:17:01.307Z,23.19
2023-07-09T21:19:34.082Z,23.14
2023-07-09T21:22:04.401Z,23.14
2023-07-09T21:24:39.283Z,23.02
2023-07-09T21:27:08.684Z,22.88
2023-07-09T21:29:37.377Z,23.05
2023-07-09T21:32:21.182Z,22.95
2023-07-09T21:34:53.539Z,22.90
2023-07-09T21:37:23.370Z,22.91
2023-07-09T21:39:52.219Z,22.94
2023-07-09T21:42:20.344Z,22.97
2023-07-09T21:44:48.623Z,22.94
2023-07-09T21:47:19.377Z,22.86
2023-07-09T21:49:48.000Z,22.82
2023-07-09T21:52:22.507Z,22.89
2023-07-09T21:57:24.108Z,22.92
2023-07-09T21:59:52.577Z,22.91
2023-07-09T22:02:25.084Z,22.88
2023-07-09T22:04:55.641Z,22.72
2023-07-09T22:07:25.883Z,22.74
2023-07-09T22:09:56.047Z,22.75
2023-07-09T22:12:24.371Z,22.69
2023-07-09T22:14:58.819Z,22.65
2023-07-09T22:17:27.543Z,22.64
2023-07-09T22:19:58.543Z,22.54
2023-07-09T22:22:31.382Z,22.72
2023-07-09T22:25:00.671Z,22.63
2023-07-09T22:27:29.454Z,22.42
2023-07-09T22:29:58.106Z,22.52
2023-07-09T22:32:32.251Z,22.54
2023-07-09T22:35:03.959Z,22.59
2023-07-09T22:37:33.797Z,22.37
2023-07-09T22:40:32.033Z,22.44
2023-07-09T22:43:00.764Z,22.50
2023-07-09T22:45:30.957Z,22.54
2023-07-09T22:48:00.950Z,22.51
2023-07-09T22:50:32.614Z,22.61
2023-07-09T22:53:01.098Z,22.34
2023-07-09T22:55:36.579Z,22.35
2023-07-09T22:58:09.084Z,22.33
2023-07-09T23:00:39.805Z,22.45
2023-07-09T23:03:18.212Z,22.21
2023-07-09T23:05:47.963Z,22.36
2023-07-09T23:08:24.898Z,22.41
2023-07-09T23:10:58.427Z,22.45
2023-07-09T23:13:30.476Z,22.51
2023-07-09T23:16:02.799Z,22.58
2023-07-09T23:18:32.124Z,22.58
2023-07-09T23:21:04.337Z,22.44
2023-07-09T23:23:32.565Z,22.41
2023-07-09T23:26:01.009Z,22.42
2023-07-09T23:28:29.236Z,22.47
2023-07-09T23:31:01.930Z,22.43
2023-07-09T23:33:32.982Z,22.50
2023-07-09T23:36:03.366Z,22.50
2023-07-09T23:38:33.537Z,22.61
2023-07-09T23:41:02.626Z,22.65
2023-07-09T23:43:41.868Z,22.67
2023-07-09T23:46:13.189Z,22.54
2023-07-09T23:48:46.731Z,22.44
2023-07-09T23:51:17.614Z,22.49
2023-07-09T23:53:45.560Z,22.53
2023-07-09T23:56:19.903Z,22.55
2023-07-09T23:58:48.093Z,22.58
